Terminal Aerodrome Forecast
Issued by NWS

Home | Current Version | Previous Version | Graphics & Text | Print | Product List | Glossary On
Versions: 1 2 3 4 5 6 7 8 9 10 11 12 13 14 15 16 17 18 19 20 21 22 23 24 25
871
FTUS43 KGRB 231606 AAC
TAFMTW
TAF AMD
KMTW 231606Z 2316/2412 06005KT P6SM OVC007
     FM231700 05007KT P6SM SCT011 BKN025
     FM232100 05010KT 5SM -RA BR BKN015 OVC025
     FM240500 02010G17KT P6SM -SHRA BKN012 OVC040=

USA.gov is the U.S. government's official web portal to all federal, state and local government web resources and services.